sensor_id;sensor_type;location;lat;lon;timestamp;temperature;humidity
74153;DHT22;62505;46.070;14.492;2023-03-31T00:01:17;21.00;61.20
74153;DHT22;62505;46.070;14.492;2023-03-31T00:03:45;20.90;61.10
74153;DHT22;62505;46.070;14.492;2023-03-31T00:06:12;20.90;61.10
74153;DHT22;62505;46.070;14.492;2023-03-31T00:08:43;21.00;61.20
74153;DHT22;62505;46.070;14.492;2023-03-31T00:11:11;20.90;61.10
74153;DHT22;62505;46.070;14.492;2023-03-31T00:13:38;21.00;61.20
74153;DHT22;62505;46.070;14.492;2023-03-31T00:16:07;20.90;61.00
74153;DHT22;62505;46.070;14.492;2023-03-31T00:18:35;20.90;61.10
74153;DHT22;62505;46.070;14.492;2023-03-31T00:21:08;20.90;61.10
74153;DHT22;62505;46.070;14.492;2023-03-31T00:23:38;20.90;61.10
74153;DHT22;62505;46.070;14.492;2023-03-31T00:26:06;20.90;61.00
74153;DHT22;62505;46.070;14.492;2023-03-31T00:28:35;20.90;61.00
74153;DHT22;62505;46.070;14.492;2023-03-31T00:31:02;20.90;61.00
74153;DHT22;62505;46.070;14.492;2023-03-31T00:33:30;20.90;61.00
74153;DHT22;62505;46.070;14.492;2023-03-31T00:35:57;20.90;61.00
74153;DHT22;62505;46.070;14.492;2023-03-31T00:38:30;20.90;61.00
74153;DHT22;62505;46.070;14.492;2023-03-31T00:40:58;20.90;61.00
74153;DHT22;62505;46.070;14.492;2023-03-31T00:43:28;20.90;61.00
74153;DHT22;62505;46.070;14.492;2023-03-31T00:46:04;21.00;61.00
74153;DHT22;62505;46.070;14.492;2023-03-31T00:48:34;20.90;61.00
74153;DHT22;62505;46.070;14.492;2023-03-31T00:51:04;20.90;60.90
74153;DHT22;62505;46.070;14.492;2023-03-31T00:53:32;20.90;61.00
74153;DHT22;62505;46.070;14.492;2023-03-31T00:56:05;20.90;61.70
74153;DHT22;62505;46.070;14.492;2023-03-31T00:58:32;20.90;60.90
74153;DHT22;62505;46.070;14.492;2023-03-31T01:01:02;20.90;60.90
74153;DHT22;62505;46.070;14.492;2023-03-31T01:03:30;20.90;61.00
74153;DHT22;62505;46.070;14.492;2023-03-31T01:06:00;20.90;60.90
74153;DHT22;62505;46.070;14.492;2023-03-31T01:08:30;20.90;60.90
74153;DHT22;62505;46.070;14.492;2023-03-31T01:11:02;20.90;61.00
74153;DHT22;62505;46.070;14.492;2023-03-31T01:13:30;20.90;60.90
74153;DHT22;62505;46.070;14.492;2023-03-31T01:15:58;20.90;60.90
74153;DHT22;62505;46.070;14.492;2023-03-31T01:18:27;20.90;60.90
74153;DHT22;62505;46.070;14.492;2023-03-31T01:21:21;20.90;60.90
74153;DHT22;62505;46.070;14.492;2023-03-31T01:24:13;20.90;60.90
74153;DHT22;62505;46.070;14.492;2023-03-31T01:27:00;20.90;60.90
74153;DHT22;62505;46.070;14.492;2023-03-31T01:29:57;20.90;60.90
74153;DHT22;62505;46.070;14.492;2023-03-31T01:32:56;20.90;60.90
74153;DHT22;62505;46.070;14.492;2023-03-31T01:35:55;20.90;60.90
74153;DHT22;62505;46.070;14.492;2023-03-31T01:38:43;20.90;60.90
74153;DHT22;62505;46.070;14.492;2023-03-31T01:41:25;20.90;60.90
74153;DHT22;62505;46.070;14.492;2023-03-31T01:44:00;20.90;60.90
74153;DHT22;62505;46.070;14.492;2023-03-31T01:46:32;20.90;60.90
74153;DHT22;62505;46.070;14.492;2023-03-31T01:49:07;20.90;60.90
74153;DHT22;62505;46.070;14.492;2023-03-31T01:51:45;20.90;60.90
74153;DHT22;62505;46.070;14.492;2023-03-31T01:54:19;20.90;60.80
74153;DHT22;62505;46.070;14.492;2023-03-31T01:56:51;20.90;60.80
74153;DHT22;62505;46.070;14.492;2023-03-31T01:59:24;20.90;60.80
74153;DHT22;62505;46.070;14.492;2023-03-31T02:01:57;20.90;60.80
74153;DHT22;62505;46.070;14.492;2023-03-31T02:04:29;20.90;60.80
74153;DHT22;62505;46.070;14.492;2023-03-31T02:06:59;20.90;60.80
74153;DHT22;62505;46.070;14.492;2023-03-31T02:09:32;20.90;60.80
74153;DHT22;62505;46.070;14.492;2023-03-31T02:12:04;20.90;60.70
74153;DHT22;62505;46.070;14.492;2023-03-31T02:14:32;20.90;60.80
74153;DHT22;62505;46.070;14.492;2023-03-31T02:17:01;20.90;60.80
74153;DHT22;62505;46.070;14.492;2023-03-31T02:19:32;20.90;60.80
74153;DHT22;62505;46.070;14.492;2023-03-31T02:22:00;20.90;60.70
74153;DHT22;62505;46.070;14.492;2023-03-31T02:24:30;20.90;60.80
74153;DHT22;62505;46.070;14.492;2023-03-31T02:27:05;20.90;60.80
74153;DHT22;62505;46.070;14.492;2023-03-31T02:29:33;20.90;60.80
74153;DHT22;62505;46.070;14.492;2023-03-31T02:32:05;20.90;60.80
74153;DHT22;62505;46.070;14.492;2023-03-31T02:34:34;20.90;60.80
74153;DHT22;62505;46.070;14.492;2023-03-31T02:37:01;20.90;60.70
74153;DHT22;62505;46.070;14.492;2023-03-31T02:39:30;20.90;60.70
74153;DHT22;62505;46.070;14.492;2023-03-31T02:41:59;20.90;60.70
74153;DHT22;62505;46.070;14.492;2023-03-31T02:44:33;20.90;60.70
74153;DHT22;62505;46.070;14.492;2023-03-31T02:47:00;20.90;60.70
74153;DHT22;62505;46.070;14.492;2023-03-31T02:49:28;20.90;60.70
74153;DHT22;62505;46.070;14.492;2023-03-31T02:52:11;20.90;60.70
74153;DHT22;62505;46.070;14.492;2023-03-31T02:58:08;20.90;60.70
74153;DHT22;62505;46.070;14.492;2023-03-31T03:01:00;20.90;60.70
74153;DHT22;62505;46.070;14.492;2023-03-31T03:03:40;20.90;60.70
74153;DHT22;62505;46.070;14.492;2023-03-31T03:06:24;20.90;60.70
74153;DHT22;62505;46.070;14.492;2023-03-31T03:09:06;20.90;60.70
74153;DHT22;62505;46.070;14.492;2023-03-31T03:11:38;20.90;60.70
74153;DHT22;62505;46.070;14.492;2023-03-31T03:14:16;20.90;60.70
74153;DHT22;62505;46.070;14.492;2023-03-31T03:16:47;20.90;60.70
74153;DHT22;62505;46.070;14.492;2023-03-31T03:19:18;20.90;60.70
74153;DHT22;62505;46.070;14.492;2023-03-31T03:21:46;20.90;60.70
74153;DHT22;62505;46.070;14.492;2023-03-31T03:24:14;20.90;60.70
74153;DHT22;62505;46.070;14.492;2023-03-31T03:26:41;20.90;60.70
74153;DHT22;62505;46.070;14.492;2023-03-31T03:29:09;20.90;60.70
74153;DHT22;62505;46.070;14.492;2023-03-31T03:31:37;20.90;60.70
74153;DHT22;62505;46.070;14.492;2023-03-31T03:34:06;20.90;60.70
74153;DHT22;62505;46.070;14.492;2023-03-31T03:36:34;20.90;60.70
74153;DHT22;62505;46.070;14.492;2023-03-31T03:39:02;20.90;60.70
74153;DHT22;62505;46.070;14.492;2023-03-31T03:41:30;20.90;60.70
74153;DHT22;62505;46.070;14.492;2023-03-31T03:43:58;20.90;60.70
74153;DHT22;62505;46.070;14.492;2023-03-31T03:46:25;20.90;60.70
74153;DHT22;62505;46.070;14.492;2023-03-31T03:48:52;20.90;60.70
74153;DHT22;62505;46.070;14.492;2023-03-31T03:51:20;20.90;60.70
74153;DHT22;62505;46.070;14.492;2023-03-31T03:53:48;20.90;60.70
74153;DHT22;62505;46.070;14.492;2023-03-31T03:56:15;20.90;60.70
74153;DHT22;62505;46.070;14.492;2023-03-31T03:58:42;20.90;60.70
74153;DHT22;62505;46.070;14.492;2023-03-31T04:01:09;20.90;61.50
74153;DHT22;62505;46.070;14.492;2023-03-31T04:03:36;20.90;60.70
74153;DHT22;62505;46.070;14.492;2023-03-31T04:06:03;20.90;60.70
74153;DHT22;62505;46.070;14.492;2023-03-31T04:08:31;20.90;60.70
74153;DHT22;62505;46.070;14.492;2023-03-31T04:10:58;20.90;60.70
74153;DHT22;62505;46.070;14.492;2023-03-31T04:13:26;20.90;60.70
74153;DHT22;62505;46.070;14.492;2023-03-31T04:15:53;20.90;60.70
74153;DHT22;62505;46.070;14.492;2023-03-31T04:18:20;20.90;60.70
74153;DHT22;62505;46.070;14.492;2023-03-31T04:20:48;20.90;60.70
74153;DHT22;62505;46.070;14.492;2023-03-31T04:23:20;20.90;60.70
74153;DHT22;62505;46.070;14.492;2023-03-31T04:25:50;20.90;60.80
74153;DHT22;62505;46.070;14.492;2023-03-31T04:28:17;20.90;60.80
74153;DHT22;62505;46.070;14.492;2023-03-31T04:30:44;20.90;60.70
74153;DHT22;62505;46.070;14.492;2023-03-31T04:33:11;20.90;60.80
74153;DHT22;62505;46.070;14.492;2023-03-31T04:35:40;20.90;60.80
74153;DHT22;62505;46.070;14.492;2023-03-31T04:38:15;20.90;60.90
74153;DHT22;62505;46.070;14.492;2023-03-31T04:40:44;20.90;60.80
74153;DHT22;62505;46.070;14.492;2023-03-31T04:43:13;20.90;60.80
74153;DHT22;62505;46.070;14.492;2023-03-31T04:45:41;20.90;60.80
74153;DHT22;62505;46.070;14.492;2023-03-31T04:48:08;20.80;60.70
74153;DHT22;62505;46.070;14.492;2023-03-31T04:50:36;20.90;60.80
74153;DHT22;62505;46.070;14.492;2023-03-31T04:53:03;20.90;60.80
74153;DHT22;62505;46.070;14.492;2023-03-31T04:55:30;20.90;60.80
74153;DHT22;62505;46.070;14.492;2023-03-31T04:57:57;20.90;60.90
74153;DHT22;62505;46.070;14.492;2023-03-31T05:00:26;20.90;60.80
74153;DHT22;62505;46.070;14.492;2023-03-31T05:02:53;20.80;60.80
74153;DHT22;62505;46.070;14.492;2023-03-31T05:05:20;20.80;60.80
74153;DHT22;62505;46.070;14.492;2023-03-31T05:07:47;20.80;60.70
74153;DHT22;62505;46.070;14.492;2023-03-31T05:10:14;20.80;60.80
74153;DHT22;62505;46.070;14.492;2023-03-31T05:12:41;20.80;60.70
74153;DHT22;62505;46.070;14.492;2023-03-31T05:15:09;20.90;61.00
74153;DHT22;62505;46.070;14.492;2023-03-31T05:17:37;20.80;60.90
74153;DHT22;62505;46.070;14.492;2023-03-31T05:20:05;20.80;59.80
74153;DHT22;62505;46.070;14.492;2023-03-31T05:22:34;20.80;59.20
74153;DHT22;62505;46.070;14.492;2023-03-31T05:25:02;20.80;58.20
74153;DHT22;62505;46.070;14.492;2023-03-31T05:27:29;20.80;58.30
74153;DHT22;62505;46.070;14.492;2023-03-31T05:29:56;20.80;58.20
74153;DHT22;62505;46.070;14.492;2023-03-31T05:32:24;20.80;58.30
74153;DHT22;62505;46.070;14.492;2023-03-31T05:34:52;20.80;58.60
74153;DHT22;62505;46.070;14.492;2023-03-31T05:37:22;20.80;58.70
74153;DHT22;62505;46.070;14.492;2023-03-31T05:39:50;20.80;58.80
74153;DHT22;62505;46.070;14.492;2023-03-31T05:42:17;20.80;58.80
74153;DHT22;62505;46.070;14.492;2023-03-31T05:44:45;20.80;58.90
74153;DHT22;62505;46.070;14.492;2023-03-31T05:47:13;20.80;59.10
74153;DHT22;62505;46.070;14.492;2023-03-31T05:49:40;20.80;59.40
74153;DHT22;62505;46.070;14.492;2023-03-31T05:52:11;20.80;59.30
74153;DHT22;62505;46.070;14.492;2023-03-31T05:54:38;20.80;59.40
74153;DHT22;62505;46.070;14.492;2023-03-31T05:57:05;20.80;59.70
74153;DHT22;62505;46.070;14.492;2023-03-31T05:59:32;21.00;59.60
74153;DHT22;62505;46.070;14.492;2023-03-31T06:02:00;21.10;59.30
74153;DHT22;62505;46.070;14.492;2023-03-31T06:04:27;21.20;59.20
74153;DHT22;62505;46.070;14.492;2023-03-31T06:06:55;21.30;59.10
74153;DHT22;62505;46.070;14.492;2023-03-31T06:09:24;21.40;59.10
74153;DHT22;62505;46.070;14.492;2023-03-31T06:11:52;21.40;59.60
74153;DHT22;62505;46.070;14.492;2023-03-31T06:14:19;21.50;59.20
74153;DHT22;62505;46.070;14.492;2023-03-31T06:16:46;21.50;59.10
74153;DHT22;62505;46.070;14.492;2023-03-31T06:19:14;21.60;59.10
74153;DHT22;62505;46.070;14.492;2023-03-31T06:21:41;21.50;59.10
74153;DHT22;62505;46.070;14.492;2023-03-31T06:24:08;21.60;59.10
74153;DHT22;62505;46.070;14.492;2023-03-31T06:26:37;21.60;59.10
74153;DHT22;62505;46.070;14.492;2023-03-31T06:29:04;21.60;59.10
74153;DHT22;62505;46.070;14.492;2023-03-31T06:31:31;21.60;59.10
74153;DHT22;62505;46.070;14.492;2023-03-31T06:33:58;21.70;59.20
74153;DHT22;62505;46.070;14.492;2023-03-31T06:36:24;21.70;59.40
74153;DHT22;62505;46.070;14.492;2023-03-31T06:38:52;21.70;59.30
74153;DHT22;62505;46.070;14.492;2023-03-31T06:41:20;21.80;59.30
74153;DHT22;62505;46.070;14.492;2023-03-31T06:43:48;21.80;59.30
74153;DHT22;62505;46.070;14.492;2023-03-31T06:46:15;21.80;59.30
74153;DHT22;62505;46.070;14.492;2023-03-31T06:48:43;21.80;59.20
74153;DHT22;62505;46.070;14.492;2023-03-31T06:51:10;21.80;59.20
74153;DHT22;62505;46.070;14.492;2023-03-31T06:53:37;21.80;59.00
74153;DHT22;62505;46.070;14.492;2023-03-31T06:56:05;21.90;59.00
74153;DHT22;62505;46.070;14.492;2023-03-31T06:58:32;21.90;58.90
74153;DHT22;62505;46.070;14.492;2023-03-31T07:01:02;21.80;58.80
74153;DHT22;62505;46.070;14.492;2023-03-31T07:03:29;21.90;58.90
74153;DHT22;62505;46.070;14.492;2023-03-31T07:05:56;21.90;58.70
74153;DHT22;62505;46.070;14.492;2023-03-31T07:08:24;21.90;58.70
74153;DHT22;62505;46.070;14.492;2023-03-31T07:10:54;21.90;58.60
74153;DHT22;62505;46.070;14.492;2023-03-31T07:13:22;22.00;58.70
74153;DHT22;62505;46.070;14.492;2023-03-31T07:15:50;22.00;58.70
74153;DHT22;62505;46.070;14.492;2023-03-31T07:18:19;22.00;58.80
74153;DHT22;62505;46.070;14.492;2023-03-31T07:20:51;22.00;58.80
74153;DHT22;62505;46.070;14.492;2023-03-31T07:23:18;22.10;58.90
74153;DHT22;62505;46.070;14.492;2023-03-31T07:25:46;22.00;58.80
74153;DHT22;62505;46.070;14.492;2023-03-31T07:28:13;22.10;59.00
74153;DHT22;62505;46.070;14.492;2023-03-31T07:30:40;22.10;59.10
74153;DHT22;62505;46.070;14.492;2023-03-31T07:33:08;22.10;59.00
74153;DHT22;62505;46.070;14.492;2023-03-31T07:35:38;22.10;59.10
74153;DHT22;62505;46.070;14.492;2023-03-31T07:38:07;22.10;59.20
74153;DHT22;62505;46.070;14.492;2023-03-31T07:40:35;22.10;59.30
74153;DHT22;62505;46.070;14.492;2023-03-31T07:43:03;22.10;59.40
74153;DHT22;62505;46.070;14.492;2023-03-31T07:45:32;22.10;59.40
74153;DHT22;62505;46.070;14.492;2023-03-31T07:48:00;22.10;59.50
74153;DHT22;62505;46.070;14.492;2023-03-31T07:50:27;22.10;59.50
74153;DHT22;62505;46.070;14.492;2023-03-31T07:52:55;22.10;59.50
74153;DHT22;62505;46.070;14.492;2023-03-31T07:55:22;22.10;59.50
74153;DHT22;62505;46.070;14.492;2023-03-31T07:57:50;22.10;59.60
74153;DHT22;62505;46.070;14.492;2023-03-31T08:00:18;22.10;59.70
74153;DHT22;62505;46.070;14.492;2023-03-31T08:02:46;22.10;59.70
74153;DHT22;62505;46.070;14.492;2023-03-31T08:05:15;22.10;59.70
74153;DHT22;62505;46.070;14.492;2023-03-31T08:07:44;22.20;59.80
74153;DHT22;62505;46.070;14.492;2023-03-31T08:10:15;22.20;59.90
74153;DHT22;62505;46.070;14.492;2023-03-31T08:12:42;22.20;59.90
74153;DHT22;62505;46.070;14.492;2023-03-31T08:15:10;22.20;59.90
74153;DHT22;62505;46.070;14.492;2023-03-31T08:17:37;22.20;60.00
74153;DHT22;62505;46.070;14.492;2023-03-31T08:20:06;22.20;60.10
74153;DHT22;62505;46.070;14.492;2023-03-31T08:22:34;22.20;60.10
74153;DHT22;62505;46.070;14.492;2023-03-31T08:25:02;22.20;60.10
74153;DHT22;62505;46.070;14.492;2023-03-31T08:27:33;22.20;60.10
74153;DHT22;62505;46.070;14.492;2023-03-31T08:30:01;22.20;60.10
74153;DHT22;62505;46.070;14.492;2023-03-31T08:32:30;22.20;60.20
74153;DHT22;62505;46.070;14.492;2023-03-31T08:34:57;22.20;60.20
74153;DHT22;62505;46.070;14.492;2023-03-31T08:37:25;22.20;60.30
74153;DHT22;62505;46.070;14.492;2023-03-31T08:39:53;22.20;60.30
74153;DHT22;62505;46.070;14.492;2023-03-31T08:42:23;22.20;60.50
74153;DHT22;62505;46.070;14.492;2023-03-31T08:44:58;22.20;60.60
74153;DHT22;62505;46.070;14.492;2023-03-31T08:47:29;22.20;60.70
74153;DHT22;62505;46.070;14.492;2023-03-31T08:50:02;22.20;60.70
74153;DHT22;62505;46.070;14.492;2023-03-31T08:52:35;22.10;60.70
74153;DHT22;62505;46.070;14.492;2023-03-31T08:55:05;22.10;60.60
74153;DHT22;62505;46.070;14.492;2023-03-31T08:57:39;22.10;60.50
74153;DHT22;62505;46.070;14.492;2023-03-31T09:00:14;22.10;60.40
74153;DHT22;62505;46.070;14.492;2023-03-31T09:02:46;22.10;60.30
74153;DHT22;62505;46.070;14.492;2023-03-31T09:05:39;22.20;60.10
74153;DHT22;62505;46.070;14.492;2023-03-31T09:08:13;22.20;60.30
74153;DHT22;62505;46.070;14.492;2023-03-31T09:10:50;22.20;60.30
74153;DHT22;62505;46.070;14.492;2023-03-31T09:13:51;22.20;60.40
74153;DHT22;62505;46.070;14.492;2023-03-31T09:16:25;22.20;60.40
74153;DHT22;62505;46.070;14.492;2023-03-31T09:18:56;22.20;60.40
74153;DHT22;62505;46.070;14.492;2023-03-31T09:21:27;22.20;60.50
74153;DHT22;62505;46.070;14.492;2023-03-31T09:24:00;22.20;60.60
74153;DHT22;62505;46.070;14.492;2023-03-31T09:26:33;22.20;60.70
74153;DHT22;62505;46.070;14.492;2023-03-31T09:29:06;22.30;61.00
74153;DHT22;62505;46.070;14.492;2023-03-31T09:31:37;22.20;60.60
74153;DHT22;62505;46.070;14.492;2023-03-31T09:34:13;22.30;60.80
74153;DHT22;62505;46.070;14.492;2023-03-31T09:36:40;22.30;60.90
74153;DHT22;62505;46.070;14.492;2023-03-31T09:39:11;22.30;60.90
74153;DHT22;62505;46.070;14.492;2023-03-31T09:41:42;22.30;60.90
74153;DHT22;62505;46.070;14.492;2023-03-31T09:44:26;22.30;60.90
74153;DHT22;62505;46.070;14.492;2023-03-31T09:46:55;22.30;61.00
74153;DHT22;62505;46.070;14.492;2023-03-31T09:49:27;22.30;61.00
74153;DHT22;62505;46.070;14.492;2023-03-31T09:52:02;22.30;61.10
74153;DHT22;62505;46.070;14.492;2023-03-31T09:54:35;22.30;61.10
74153;DHT22;62505;46.070;14.492;2023-03-31T09:57:12;22.30;61.30
74153;DHT22;62505;46.070;14.492;2023-03-31T09:59:40;22.20;61.40
74153;DHT22;62505;46.070;14.492;2023-03-31T10:02:26;22.20;61.40
74153;DHT22;62505;46.070;14.492;2023-03-31T10:04:54;22.20;61.50
74153;DHT22;62505;46.070;14.492;2023-03-31T10:07:23;22.20;61.40
74153;DHT22;62505;46.070;14.492;2023-03-31T10:09:51;22.30;61.40
74153;DHT22;62505;46.070;14.492;2023-03-31T10:12:20;22.30;61.40
74153;DHT22;62505;46.070;14.492;2023-03-31T10:14:50;22.30;61.10
74153;DHT22;62505;46.070;14.492;2023-03-31T10:17:20;22.40;61.30
74153;DHT22;62505;46.070;14.492;2023-03-31T10:19:49;22.40;61.40
74153;DHT22;62505;46.070;14.492;2023-03-31T10:22:26;22.40;61.30
74153;DHT22;62505;46.070;14.492;2023-03-31T10:24:54;22.40;61.30
74153;DHT22;62505;46.070;14.492;2023-03-31T10:27:33;22.40;61.40
74153;DHT22;62505;46.070;14.492;2023-03-31T10:30:02;22.40;61.50
74153;DHT22;62505;46.070;14.492;2023-03-31T10:32:32;22.30;61.50
74153;DHT22;62505;46.070;14.492;2023-03-31T10:35:04;22.30;61.70
74153;DHT22;62505;46.070;14.492;2023-03-31T10:37:34;22.30;61.80
74153;DHT22;62505;46.070;14.492;2023-03-31T10:40:04;22.20;62.00
74153;DHT22;62505;46.070;14.492;2023-03-31T10:42:38;22.30;62.20
74153;DHT22;62505;46.070;14.492;2023-03-31T10:45:17;22.20;62.20
74153;DHT22;62505;46.070;14.492;2023-03-31T10:47:52;22.20;62.20
74153;DHT22;62505;46.070;14.492;2023-03-31T10:50:26;22.20;62.20
74153;DHT22;62505;46.070;14.492;2023-03-31T10:53:01;22.20;62.20
74153;DHT22;62505;46.070;14.492;2023-03-31T10:55:33;22.20;61.60
74153;DHT22;62505;46.070;14.492;2023-03-31T10:58:08;22.20;60.90
74153;DHT22;62505;46.070;14.492;2023-03-31T11:00:54;22.20;60.50
74153;DHT22;62505;46.070;14.492;2023-03-31T11:03:53;22.30;60.70
74153;DHT22;62505;46.070;14.492;2023-03-31T11:06:25;22.30;60.50
74153;DHT22;62505;46.070;14.492;2023-03-31T11:09:03;22.30;60.40
74153;DHT22;62505;46.070;14.492;2023-03-31T11:11:54;22.30;60.20
74153;DHT22;62505;46.070;14.492;2023-03-31T11:14:32;22.30;60.10
74153;DHT22;62505;46.070;14.492;2023-03-31T11:17:07;22.30;60.10
74153;DHT22;62505;46.070;14.492;2023-03-31T11:19:49;22.30;60.20
74153;DHT22;62505;46.070;14.492;2023-03-31T11:22:25;22.30;60.20
74153;DHT22;62505;46.070;14.492;2023-03-31T11:25:19;22.30;60.30
74153;DHT22;62505;46.070;14.492;2023-03-31T11:28:31;22.30;60.30
74153;DHT22;62505;46.070;14.492;2023-03-31T11:31:19;22.20;60.30
74153;DHT22;62505;46.070;14.492;2023-03-31T11:34:10;22.20;60.50
74153;DHT22;62505;46.070;14.492;2023-03-31T11:36:52;22.20;60.50
74153;DHT22;62505;46.070;14.492;2023-03-31T11:39:34;22.20;60.50
74153;DHT22;62505;46.070;14.492;2023-03-31T11:42:07;22.20;60.50
74153;DHT22;62505;46.070;14.492;2023-03-31T11:44:40;22.20;60.50
74153;DHT22;62505;46.070;14.492;2023-03-31T11:47:13;22.20;60.30
74153;DHT22;62505;46.070;14.492;2023-03-31T11:49:46;22.30;60.10
74153;DHT22;62505;46.070;14.492;2023-03-31T11:52:17;22.30;60.00
74153;DHT22;62505;46.070;14.492;2023-03-31T11:54:52;22.30;59.80
74153;DHT22;62505;46.070;14.492;2023-03-31T11:57:24;22.40;59.80
74153;DHT22;62505;46.070;14.492;2023-03-31T11:59:56;22.40;59.80
74153;DHT22;62505;46.070;14.492;2023-03-31T12:02:35;22.40;59.80
74153;DHT22;62505;46.070;14.492;2023-03-31T12:05:04;22.40;59.80
74153;DHT22;62505;46.070;14.492;2023-03-31T12:07:37;22.30;59.80
74153;DHT22;62505;46.070;14.492;2023-03-31T12:10:14;22.30;59.80
74153;DHT22;62505;46.070;14.492;2023-03-31T12:12:46;22.30;60.00
74153;DHT22;62505;46.070;14.492;2023-03-31T12:15:19;22.30;60.00
74153;DHT22;62505;46.070;14.492;2023-03-31T12:17:52;22.20;60.00
74153;DHT22;62505;46.070;14.492;2023-03-31T12:20:27;22.20;60.20
74153;DHT22;62505;46.070;14.492;2023-03-31T12:22:58;22.20;60.30
74153;DHT22;62505;46.070;14.492;2023-03-31T12:25:31;22.10;60.30
74153;DHT22;62505;46.070;14.492;2023-03-31T12:28:03;22.10;60.40
74153;DHT22;62505;46.070;14.492;2023-03-31T12:30:31;22.10;60.40
74153;DHT22;62505;46.070;14.492;2023-03-31T12:33:05;22.20;60.20
74153;DHT22;62505;46.070;14.492;2023-03-31T12:35:40;22.20;60.00
74153;DHT22;62505;46.070;14.492;2023-03-31T12:38:32;22.30;59.80
74153;DHT22;62505;46.070;14.492;2023-03-31T12:41:07;22.40;59.70
74153;DHT22;62505;46.070;14.492;2023-03-31T12:43:58;22.40;59.60
74153;DHT22;62505;46.070;14.492;2023-03-31T12:47:04;22.40;59.60
74153;DHT22;62505;46.070;14.492;2023-03-31T12:49:51;22.30;59.70
74153;DHT22;62505;46.070;14.492;2023-03-31T12:52:27;22.30;59.70
74153;DHT22;62505;46.070;14.492;2023-03-31T12:55:25;22.20;59.70
74153;DHT22;62505;46.070;14.492;2023-03-31T13:01:05;22.20;60.10
74153;DHT22;62505;46.070;14.492;2023-03-31T13:03:39;22.20;60.60
74153;DHT22;62505;46.070;14.492;2023-03-31T13:06:09;22.10;60.90
74153;DHT22;62505;46.070;14.492;2023-03-31T13:08:52;22.10;62.30
74153;DHT22;62505;46.070;14.492;2023-03-31T13:11:21;22.10;62.10
74153;DHT22;62505;46.070;14.492;2023-03-31T13:14:01;22.00;62.30
74153;DHT22;62505;46.070;14.492;2023-03-31T13:16:29;22.10;63.60
74153;DHT22;62505;46.070;14.492;2023-03-31T13:18:57;22.00;63.10
74153;DHT22;62505;46.070;14.492;2023-03-31T13:21:24;22.00;63.90
74153;DHT22;62505;46.070;14.492;2023-03-31T13:23:51;22.10;63.90
74153;DHT22;62505;46.070;14.492;2023-03-31T13:26:50;22.00;65.20
74153;DHT22;62505;46.070;14.492;2023-03-31T13:29:23;22.00;62.90
74153;DHT22;62505;46.070;14.492;2023-03-31T13:32:18;22.00;62.20
74153;DHT22;62505;46.070;14.492;2023-03-31T13:34:52;22.00;61.30
74153;DHT22;62505;46.070;14.492;2023-03-31T13:37:36;22.00;61.00
74153;DHT22;62505;46.070;14.492;2023-03-31T13:40:39;21.90;61.50
74153;DHT22;62505;46.070;14.492;2023-03-31T13:43:53;22.00;60.70
74153;DHT22;62505;46.070;14.492;2023-03-31T13:46:50;21.90;60.60
74153;DHT22;62505;46.070;14.492;2023-03-31T13:49:43;21.90;60.40
74153;DHT22;62505;46.070;14.492;2023-03-31T13:52:13;21.90;60.40
74153;DHT22;62505;46.070;14.492;2023-03-31T13:55:01;21.90;60.40
74153;DHT22;62505;46.070;14.492;2023-03-31T13:57:53;21.90;60.40
74153;DHT22;62505;46.070;14.492;2023-03-31T14:00:36;21.90;60.40
74153;DHT22;62505;46.070;14.492;2023-03-31T14:03:36;21.90;60.40
74153;DHT22;62505;46.070;14.492;2023-03-31T14:06:08;21.90;60.40
74153;DHT22;62505;46.070;14.492;2023-03-31T14:08:48;21.90;60.40
74153;DHT22;62505;46.070;14.492;2023-03-31T14:11:20;21.90;60.40
74153;DHT22;62505;46.070;14.492;2023-03-31T14:13:58;21.90;60.40
74153;DHT22;62505;46.070;14.492;2023-03-31T14:16:27;21.90;60.50
74153;DHT22;62505;46.070;14.492;2023-03-31T14:19:07;21.90;60.50
74153;DHT22;62505;46.070;14.492;2023-03-31T14:21:40;21.90;60.50
74153;DHT22;62505;46.070;14.492;2023-03-31T14:24:16;21.80;60.40
74153;DHT22;62505;46.070;14.492;2023-03-31T14:26:53;21.80;60.40
74153;DHT22;62505;46.070;14.492;2023-03-31T14:29:32;21.80;60.40
74153;DHT22;62505;46.070;14.492;2023-03-31T14:32:08;21.80;60.40
74153;DHT22;62505;46.070;14.492;2023-03-31T14:34:52;21.80;60.40
74153;DHT22;62505;46.070;14.492;2023-03-31T14:37:23;21.80;60.50
74153;DHT22;62505;46.070;14.492;2023-03-31T14:39:54;21.80;60.40
74153;DHT22;62505;46.070;14.492;2023-03-31T14:42:23;21.80;60.40
74153;DHT22;62505;46.070;14.492;2023-03-31T14:44:55;21.80;60.40
74153;DHT22;62505;46.070;14.492;2023-03-31T14:47:25;21.80;60.40
74153;DHT22;62505;46.070;14.492;2023-03-31T14:50:00;21.80;60.40
74153;DHT22;62505;46.070;14.492;2023-03-31T14:52:30;21.80;60.40
74153;DHT22;62505;46.070;14.492;2023-03-31T14:54:58;21.80;60.40
74153;DHT22;62505;46.070;14.492;2023-03-31T14:57:29;21.80;60.40
74153;DHT22;62505;46.070;14.492;2023-03-31T14:59:57;21.80;60.40
74153;DHT22;62505;46.070;14.492;2023-03-31T15:02:31;21.80;60.40
74153;DHT22;62505;46.070;14.492;2023-03-31T15:05:02;21.80;60.40
74153;DHT22;62505;46.070;14.492;2023-03-31T15:07:30;21.80;60.40
74153;DHT22;62505;46.070;14.492;2023-03-31T15:09:57;21.80;60.40
74153;DHT22;62505;46.070;14.492;2023-03-31T15:12:24;21.80;60.40
74153;DHT22;62505;46.070;14.492;2023-03-31T15:14:56;21.80;60.40
74153;DHT22;62505;46.070;14.492;2023-03-31T15:17:27;21.80;60.40
74153;DHT22;62505;46.070;14.492;2023-03-31T15:19:57;21.80;60.60
74153;DHT22;62505;46.070;14.492;2023-03-31T15:22:27;21.80;60.40
74153;DHT22;62505;46.070;14.492;2023-03-31T15:24:55;21.80;60.40
74153;DHT22;62505;46.070;14.492;2023-03-31T15:27:31;21.80;60.40
74153;DHT22;62505;46.070;14.492;2023-03-31T15:30:00;21.80;60.40
74153;DHT22;62505;46.070;14.492;2023-03-31T15:32:29;21.80;60.40
74153;DHT22;62505;46.070;14.492;2023-03-31T15:34:58;21.80;60.50
74153;DHT22;62505;46.070;14.492;2023-03-31T15:37:30;21.80;60.40
74153;DHT22;62505;46.070;14.492;2023-03-31T15:40:00;21.80;60.50
74153;DHT22;62505;46.070;14.492;2023-03-31T15:42:31;21.80;61.20
74153;DHT22;62505;46.070;14.492;2023-03-31T15:45:39;21.80;60.50
74153;DHT22;62505;46.070;14.492;2023-03-31T15:48:17;21.80;60.60
74153;DHT22;62505;46.070;14.492;2023-03-31T15:50:47;21.80;60.40
74153;DHT22;62505;46.070;14.492;2023-03-31T15:53:25;21.80;60.50
74153;DHT22;62505;46.070;14.492;2023-03-31T15:55:54;21.80;60.50